EWG3LK EDDW-LIPZ
Flight info
| Callsign | EWG3LK |
|---|---|
| Flight time | 1h 24m |
| Altitude | 35000 |
| Route | WIMCI1M/09 WIMCI Y804 PIROT N850 LARBU DCT WERRA P605 ELNAT DCT DINKU M867 XERUM DCT OLPIX DCT BASOG |
| Aircraft | A320/M-SDE3FGHIRWY/LB1 |
Departure
| Time | 2026-05-06 17:08 |
|---|---|
| Airport | Bremen Airport (EDDW) |
Arrival
| Time | 2026-05-06 18:32 |
|---|---|
| Airport | Venice Marco Polo Airport (LIPZ) |
| Time | Latitude | Longitude | Altitude | Speed | Heading |
|---|---|---|---|---|---|
| 2026-05-06 16:38 | 53.05221 | 8.78400 | 22 ft | 0 kts | 63° |
| 2026-05-06 16:41 | 53.05221 | 8.78399 | 22 ft | 0 kts | 63° |
| 2026-05-06 16:55 | 53.05220 | 8.78399 | 22 ft | 0 kts | 63° |
| 2026-05-06 17:00 | 53.05218 | 8.78391 | 23 ft | 4 kts | 65° |
| 2026-05-06 17:00 | 53.05210 | 8.78351 | 25 ft | 4 kts | 55° |
| 2026-05-06 17:00 | 53.05193 | 8.78328 | 23 ft | 4 kts | 14° |
| 2026-05-06 17:01 | 53.05170 | 8.78333 | 23 ft | 4 kts | 316° |
| 2026-05-06 17:01 | 53.05155 | 8.78365 | 22 ft | 4 kts | 297° |
| 2026-05-06 17:01 | 53.05150 | 8.78379 | 24 ft | 2 kts | 302° |
| 2026-05-06 17:02 | 53.05150 | 8.78380 | 24 ft | 0 kts | 302° |
| 2026-05-06 17:03 | 53.05162 | 8.78342 | 26 ft | 9 kts | 295° |
| 2026-05-06 17:03 | 53.05189 | 8.78206 | 22 ft | 12 kts | 287° |
| 2026-05-06 17:04 | 53.05188 | 8.78080 | 22 ft | 10 kts | 253° |
| 2026-05-06 17:04 | 53.05156 | 8.77972 | 22 ft | 12 kts | 237° |
| 2026-05-06 17:04 | 53.05076 | 8.77819 | 22 ft | 24 kts | 227° |
| 2026-05-06 17:04 | 53.04957 | 8.77605 | 22 ft | 24 kts | 225° |
| 2026-05-06 17:05 | 53.04853 | 8.77486 | 21 ft | 17 kts | 202° |
| 2026-05-06 17:05 | 53.04808 | 8.77462 | 24 ft | 0 kts | 194° |
| 2026-05-06 17:05 | 53.04770 | 8.77453 | 23 ft | 13 kts | 184° |
| 2026-05-06 17:05 | 53.04754 | 8.77452 | 23 ft | 0 kts | 182° |
| 2026-05-06 17:07 | 53.04750 | 8.77452 | 23 ft | 3 kts | 181° |
| 2026-05-06 17:07 | 53.04707 | 8.77462 | 23 ft | 10 kts | 164° |
| 2026-05-06 17:07 | 53.04662 | 8.77586 | 21 ft | 17 kts | 92° |
| 2026-05-06 17:08 | 53.04672 | 8.78039 | 21 ft | 77 kts | 88° |
| 2026-05-06 17:08 | 53.04701 | 8.79354 | 28 ft | 148 kts | 88° |
| 2026-05-06 17:08 | 53.04734 | 8.81141 | 594 ft | 161 kts | 85° |
| 2026-05-06 17:08 | 53.04787 | 8.83028 | 1490 ft | 164 kts | 84° |
| 2026-05-06 17:09 | 53.04854 | 8.84918 | 2213 ft | 167 kts | 85° |
| 2026-05-06 17:09 | 53.04560 | 8.86901 | 2486 ft | 194 kts | 118° |
| 2026-05-06 17:09 | 53.03731 | 8.88856 | 2731 ft | 221 kts | 130° |
| 2026-05-06 17:09 | 53.02437 | 8.90505 | 3073 ft | 248 kts | 147° |
| 2026-05-06 17:10 | 53.00744 | 8.91432 | 3623 ft | 266 kts | 174° |
| 2026-05-06 17:10 | 52.98882 | 8.91599 | 4468 ft | 269 kts | 176° |
| 2026-05-06 17:10 | 52.97006 | 8.91749 | 5354 ft | 271 kts | 176° |
| 2026-05-06 17:10 | 52.95114 | 8.91902 | 6213 ft | 274 kts | 176° |
| 2026-05-06 17:11 | 52.93202 | 8.92062 | 7007 ft | 277 kts | 177° |
| 2026-05-06 17:11 | 52.91268 | 8.92225 | 7820 ft | 279 kts | 177° |
| 2026-05-06 17:11 | 52.89982 | 8.92335 | 8348 ft | 281 kts | 178° |
| 2026-05-06 17:11 | 52.88022 | 8.92511 | 9166 ft | 283 kts | 178° |
| 2026-05-06 17:12 | 52.86045 | 8.92687 | 9914 ft | 286 kts | 178° |
| 2026-05-06 17:12 | 52.84015 | 8.92864 | 10315 ft | 303 kts | 178° |
| 2026-05-06 17:12 | 52.81837 | 8.93051 | 10502 ft | 326 kts | 178° |
| 2026-05-06 17:12 | 52.79484 | 8.93252 | 10648 ft | 349 kts | 178° |
| 2026-05-06 17:13 | 52.77013 | 8.93466 | 11089 ft | 359 kts | 178° |
| 2026-05-06 17:13 | 52.74501 | 8.93688 | 11704 ft | 364 kts | 178° |
| 2026-05-06 17:13 | 52.71965 | 8.93913 | 12372 ft | 367 kts | 178° |
| 2026-05-06 17:13 | 52.69410 | 8.94236 | 13023 ft | 371 kts | 172° |
| 2026-05-06 17:14 | 52.66884 | 8.95227 | 13665 ft | 375 kts | 164° |
| 2026-05-06 17:14 | 52.64377 | 8.96481 | 14239 ft | 378 kts | 164° |
| 2026-05-06 17:14 | 52.61852 | 8.97744 | 14817 ft | 381 kts | 164° |
| 2026-05-06 17:14 | 52.59310 | 8.99017 | 15404 ft | 384 kts | 164° |
| 2026-05-06 17:15 | 52.56745 | 9.00300 | 16005 ft | 387 kts | 164° |
| 2026-05-06 17:15 | 52.54163 | 9.01587 | 16610 ft | 390 kts | 164° |
| 2026-05-06 17:15 | 52.51553 | 9.02879 | 17203 ft | 393 kts | 164° |
| 2026-05-06 17:15 | 52.48923 | 9.04178 | 17788 ft | 397 kts | 165° |
| 2026-05-06 17:16 | 52.46268 | 9.05490 | 18311 ft | 400 kts | 164° |
| 2026-05-06 17:16 | 52.43593 | 9.06810 | 18798 ft | 403 kts | 165° |
| 2026-05-06 17:16 | 52.40935 | 9.08122 | 19277 ft | 405 kts | 165° |
| 2026-05-06 17:16 | 52.38228 | 9.09444 | 19753 ft | 408 kts | 165° |
| 2026-05-06 17:17 | 52.35494 | 9.10698 | 20227 ft | 410 kts | 166° |
| 2026-05-06 17:17 | 52.32730 | 9.11905 | 20705 ft | 412 kts | 167° |
| 2026-05-06 17:17 | 52.29945 | 9.13088 | 21174 ft | 414 kts | 167° |
| 2026-05-06 17:17 | 52.27157 | 9.14264 | 21624 ft | 416 kts | 167° |
| 2026-05-06 17:18 | 52.24350 | 9.15456 | 22057 ft | 418 kts | 167° |
| 2026-05-06 17:18 | 52.21532 | 9.16666 | 22470 ft | 420 kts | 167° |
| 2026-05-06 17:18 | 52.18706 | 9.17887 | 22890 ft | 422 kts | 167° |
| 2026-05-06 17:18 | 52.15863 | 9.19119 | 23282 ft | 424 kts | 167° |
| 2026-05-06 17:19 | 52.13010 | 9.20357 | 23621 ft | 426 kts | 167° |
| 2026-05-06 17:19 | 52.10147 | 9.21601 | 23940 ft | 427 kts | 167° |
| 2026-05-06 17:19 | 52.07246 | 9.22700 | 24262 ft | 427 kts | 173° |
| 2026-05-06 17:19 | 52.04291 | 9.23072 | 24570 ft | 427 kts | 182° |
| 2026-05-06 17:20 | 52.01335 | 9.22651 | 24873 ft | 427 kts | 191° |
| 2026-05-06 17:20 | 51.98396 | 9.21862 | 25190 ft | 428 kts | 190° |
| 2026-05-06 17:20 | 51.95449 | 9.21093 | 25493 ft | 430 kts | 189° |
| 2026-05-06 17:20 | 51.92492 | 9.20849 | 25784 ft | 434 kts | 179° |
| 2026-05-06 17:21 | 51.89501 | 9.21513 | 26080 ft | 438 kts | 168° |
| 2026-05-06 17:21 | 51.86599 | 9.23084 | 26358 ft | 442 kts | 158° |
| 2026-05-06 17:21 | 51.83902 | 9.25525 | 26629 ft | 447 kts | 147° |
| 2026-05-06 17:21 | 51.81446 | 9.28648 | 26885 ft | 450 kts | 143° |
| 2026-05-06 17:22 | 51.79022 | 9.31840 | 27138 ft | 451 kts | 143° |
| 2026-05-06 17:22 | 51.76580 | 9.35042 | 27369 ft | 452 kts | 144° |
| 2026-05-06 17:22 | 51.74138 | 9.38234 | 27602 ft | 453 kts | 144° |
| 2026-05-06 17:22 | 51.71677 | 9.41444 | 27874 ft | 453 kts | 144° |
| 2026-05-06 17:23 | 51.69233 | 9.44628 | 28214 ft | 452 kts | 144° |
| 2026-05-06 17:23 | 51.66785 | 9.47812 | 28545 ft | 450 kts | 144° |
| 2026-05-06 17:23 | 51.64351 | 9.50981 | 28875 ft | 449 kts | 144° |
| 2026-05-06 17:23 | 51.61927 | 9.54136 | 29217 ft | 448 kts | 144° |
| 2026-05-06 17:24 | 51.59503 | 9.57282 | 29557 ft | 447 kts | 144° |
| 2026-05-06 17:24 | 51.57088 | 9.60403 | 29891 ft | 445 kts | 145° |
| 2026-05-06 17:24 | 51.54668 | 9.63522 | 30191 ft | 444 kts | 145° |
| 2026-05-06 17:24 | 51.52292 | 9.66571 | 30486 ft | 443 kts | 147° |
| 2026-05-06 17:25 | 51.49722 | 9.69218 | 30767 ft | 437 kts | 156° |
| 2026-05-06 17:25 | 51.46938 | 9.71088 | 31044 ft | 431 kts | 166° |
| 2026-05-06 17:25 | 51.43994 | 9.72145 | 31319 ft | 426 kts | 175° |
| 2026-05-06 17:25 | 51.41093 | 9.72380 | 31587 ft | 423 kts | 184° |
| 2026-05-06 17:26 | 51.38166 | 9.71968 | 31843 ft | 421 kts | 187° |
| 2026-05-06 17:26 | 51.35245 | 9.71486 | 32098 ft | 421 kts | 187° |
| 2026-05-06 17:26 | 51.32335 | 9.71014 | 32378 ft | 421 kts | 187° |
| 2026-05-06 17:26 | 51.29424 | 9.70548 | 32640 ft | 420 kts | 187° |
| 2026-05-06 17:27 | 51.26521 | 9.70083 | 32897 ft | 420 kts | 187° |
| 2026-05-06 17:27 | 51.23616 | 9.69615 | 33164 ft | 419 kts | 187° |
| 2026-05-06 17:27 | 51.20699 | 9.69449 | 33428 ft | 421 kts | 179° |
| 2026-05-06 17:27 | 51.17789 | 9.70044 | 33679 ft | 423 kts | 170° |
| 2026-05-06 17:28 | 51.14926 | 9.71104 | 33909 ft | 423 kts | 169° |
| 2026-05-06 17:28 | 51.12050 | 9.72171 | 34129 ft | 423 kts | 170° |
| 2026-05-06 17:28 | 51.09189 | 9.73224 | 34344 ft | 422 kts | 170° |
| 2026-05-06 17:28 | 51.06323 | 9.74272 | 34564 ft | 422 kts | 170° |
| 2026-05-06 17:29 | 51.03454 | 9.75313 | 34739 ft | 422 kts | 170° |
| 2026-05-06 17:29 | 50.97701 | 9.77396 | 34795 ft | 425 kts | 170° |
| 2026-05-06 17:30 | 50.91925 | 9.79491 | 34927 ft | 428 kts | 171° |
| 2026-05-06 17:30 | 50.89016 | 9.80543 | 34787 ft | 430 kts | 171° |
| 2026-05-06 17:30 | 50.86090 | 9.81601 | 34788 ft | 431 kts | 171° |
| 2026-05-06 17:31 | 50.80286 | 9.83707 | 34787 ft | 431 kts | 171° |
| 2026-05-06 17:31 | 50.74449 | 9.85812 | 34797 ft | 430 kts | 171° |
| 2026-05-06 17:32 | 50.68610 | 9.87901 | 34796 ft | 430 kts | 171° |
| 2026-05-06 17:32 | 50.62785 | 9.89987 | 34797 ft | 429 kts | 171° |
| 2026-05-06 17:33 | 50.56965 | 9.92066 | 34797 ft | 428 kts | 171° |
| 2026-05-06 17:33 | 50.51150 | 9.94129 | 34796 ft | 428 kts | 171° |
| 2026-05-06 17:34 | 50.45349 | 9.96195 | 34799 ft | 428 kts | 171° |
| 2026-05-06 17:34 | 50.39549 | 9.98260 | 34794 ft | 427 kts | 171° |
| 2026-05-06 17:35 | 50.33766 | 10.00305 | 34800 ft | 426 kts | 171° |
| 2026-05-06 17:35 | 50.27986 | 10.02336 | 34797 ft | 425 kts | 171° |
| 2026-05-06 17:36 | 50.19331 | 10.05376 | 34803 ft | 424 kts | 171° |
| 2026-05-06 17:36 | 50.13581 | 10.07385 | 34798 ft | 423 kts | 172° |
| 2026-05-06 17:37 | 50.07832 | 10.09394 | 34805 ft | 423 kts | 171° |
| 2026-05-06 17:37 | 50.02096 | 10.11397 | 34801 ft | 422 kts | 171° |
| 2026-05-06 17:38 | 49.96410 | 10.13383 | 34803 ft | 421 kts | 171° |
| 2026-05-06 17:38 | 49.90692 | 10.15367 | 34805 ft | 421 kts | 172° |
| 2026-05-06 17:39 | 49.84983 | 10.17344 | 34803 ft | 420 kts | 172° |
| 2026-05-06 17:39 | 49.79273 | 10.19318 | 34802 ft | 420 kts | 172° |
| 2026-05-06 17:40 | 49.73576 | 10.21274 | 34798 ft | 420 kts | 172° |
| 2026-05-06 17:40 | 49.67867 | 10.23236 | 34802 ft | 420 kts | 171° |
| 2026-05-06 17:41 | 49.62167 | 10.25203 | 34798 ft | 420 kts | 171° |
| 2026-05-06 17:41 | 49.56462 | 10.27163 | 34799 ft | 420 kts | 171° |
| 2026-05-06 17:42 | 49.50756 | 10.29109 | 34802 ft | 420 kts | 172° |
| 2026-05-06 17:42 | 49.45049 | 10.31043 | 34798 ft | 420 kts | 172° |
| 2026-05-06 17:43 | 49.39341 | 10.32978 | 34800 ft | 420 kts | 171° |
| 2026-05-06 17:43 | 49.33634 | 10.34911 | 34805 ft | 420 kts | 171° |
| 2026-05-06 17:44 | 49.27931 | 10.36849 | 34830 ft | 420 kts | 171° |
| 2026-05-06 17:44 | 49.22343 | 10.39551 | 34829 ft | 427 kts | 158° |
| 2026-05-06 17:45 | 49.17191 | 10.44167 | 34826 ft | 430 kts | 154° |
| 2026-05-06 17:45 | 49.12079 | 10.48833 | 34830 ft | 430 kts | 154° |
| 2026-05-06 17:46 | 49.06939 | 10.53497 | 34830 ft | 430 kts | 154° |
| 2026-05-06 17:46 | 49.01799 | 10.58148 | 34838 ft | 430 kts | 154° |
| 2026-05-06 17:47 | 48.96656 | 10.62788 | 34837 ft | 430 kts | 154° |
| 2026-05-06 17:47 | 48.91516 | 10.67429 | 34834 ft | 430 kts | 154° |
| 2026-05-06 17:48 | 48.86373 | 10.72056 | 34830 ft | 429 kts | 155° |
| 2026-05-06 17:48 | 48.81200 | 10.76571 | 34824 ft | 426 kts | 160° |
| 2026-05-06 17:49 | 48.75699 | 10.79670 | 34821 ft | 422 kts | 165° |
| 2026-05-06 17:49 | 48.70157 | 10.82604 | 34815 ft | 422 kts | 165° |
| 2026-05-06 17:50 | 48.64650 | 10.85516 | 34814 ft | 422 kts | 165° |
| 2026-05-06 17:50 | 48.59223 | 10.88408 | 34819 ft | 422 kts | 165° |
| 2026-05-06 17:51 | 48.53679 | 10.91347 | 34820 ft | 422 kts | 166° |
| 2026-05-06 17:51 | 48.48121 | 10.94265 | 34823 ft | 423 kts | 166° |
| 2026-05-06 17:52 | 48.42569 | 10.97177 | 34827 ft | 423 kts | 166° |
| 2026-05-06 17:52 | 48.37009 | 11.00100 | 34834 ft | 423 kts | 166° |
| 2026-05-06 17:53 | 48.31452 | 11.03007 | 34826 ft | 423 kts | 166° |
| 2026-05-06 17:53 | 48.25888 | 11.05904 | 34826 ft | 423 kts | 166° |
| 2026-05-06 17:54 | 48.20321 | 11.08801 | 34833 ft | 424 kts | 166° |
| 2026-05-06 17:54 | 48.14752 | 11.11699 | 34843 ft | 424 kts | 166° |
| 2026-05-06 17:55 | 48.09177 | 11.14591 | 34847 ft | 424 kts | 166° |
| 2026-05-06 17:55 | 48.03604 | 11.17479 | 34845 ft | 424 kts | 166° |
| 2026-05-06 17:56 | 47.98016 | 11.20354 | 34837 ft | 425 kts | 166° |
| 2026-05-06 17:56 | 47.92420 | 11.23228 | 34844 ft | 425 kts | 166° |
| 2026-05-06 17:57 | 47.86860 | 11.26086 | 34837 ft | 426 kts | 166° |
| 2026-05-06 17:57 | 47.81263 | 11.28966 | 34832 ft | 426 kts | 167° |
| 2026-05-06 17:58 | 47.75654 | 11.31831 | 34827 ft | 426 kts | 167° |
| 2026-05-06 17:58 | 47.70038 | 11.34695 | 34819 ft | 427 kts | 167° |
| 2026-05-06 17:59 | 47.64420 | 11.37549 | 34815 ft | 427 kts | 167° |
| 2026-05-06 17:59 | 47.58795 | 11.40397 | 34803 ft | 427 kts | 167° |
| 2026-05-06 18:00 | 47.53173 | 11.43245 | 34792 ft | 427 kts | 167° |
| 2026-05-06 18:00 | 47.47556 | 11.46092 | 34777 ft | 427 kts | 167° |
| 2026-05-06 18:01 | 47.41940 | 11.48922 | 34792 ft | 427 kts | 167° |
| 2026-05-06 18:01 | 47.36315 | 11.51742 | 34808 ft | 427 kts | 167° |
| 2026-05-06 18:02 | 47.30690 | 11.54564 | 34812 ft | 427 kts | 167° |
| 2026-05-06 18:02 | 47.25074 | 11.57382 | 34808 ft | 426 kts | 167° |
| 2026-05-06 18:03 | 47.19462 | 11.60188 | 34811 ft | 425 kts | 167° |
| 2026-05-06 18:03 | 47.13860 | 11.62990 | 34819 ft | 426 kts | 167° |
| 2026-05-06 18:04 | 47.09197 | 11.65320 | 34819 ft | 425 kts | 167° |
| 2026-05-06 18:04 | 47.02685 | 11.68550 | 34827 ft | 425 kts | 168° |
| 2026-05-06 18:05 | 46.97977 | 11.70789 | 34835 ft | 424 kts | 169° |
| 2026-05-06 18:05 | 46.92330 | 11.73239 | 34844 ft | 423 kts | 170° |
| 2026-05-06 18:06 | 46.86723 | 11.75635 | 34853 ft | 423 kts | 169° |
| 2026-05-06 18:06 | 46.81080 | 11.78089 | 34868 ft | 423 kts | 169° |
| 2026-05-06 18:07 | 46.75454 | 11.80556 | 34880 ft | 422 kts | 169° |
| 2026-05-06 18:07 | 46.69830 | 11.83017 | 34886 ft | 422 kts | 170° |
| 2026-05-06 18:08 | 46.64215 | 11.85466 | 34890 ft | 421 kts | 169° |
| 2026-05-06 18:08 | 46.58605 | 11.87908 | 34894 ft | 420 kts | 170° |
| 2026-05-06 18:09 | 46.52999 | 11.90335 | 34898 ft | 420 kts | 170° |
| 2026-05-06 18:09 | 46.47390 | 11.92751 | 34892 ft | 420 kts | 170° |
| 2026-05-06 18:10 | 46.41793 | 11.95168 | 34894 ft | 420 kts | 170° |
| 2026-05-06 18:10 | 46.36187 | 11.97586 | 34799 ft | 418 kts | 170° |
| 2026-05-06 18:11 | 46.33403 | 11.98786 | 34560 ft | 417 kts | 170° |
| 2026-05-06 18:11 | 46.30660 | 11.99971 | 34317 ft | 417 kts | 170° |
| 2026-05-06 18:11 | 46.27884 | 12.01169 | 34080 ft | 416 kts | 171° |
| 2026-05-06 18:11 | 46.25116 | 12.02361 | 33636 ft | 413 kts | 171° |
| 2026-05-06 18:12 | 46.22361 | 12.03546 | 32754 ft | 414 kts | 171° |
| 2026-05-06 18:12 | 46.19593 | 12.04730 | 31852 ft | 416 kts | 171° |
| 2026-05-06 18:12 | 46.16813 | 12.05911 | 30966 ft | 418 kts | 171° |
| 2026-05-06 18:12 | 46.14010 | 12.07103 | 29955 ft | 421 kts | 171° |
| 2026-05-06 18:13 | 46.11192 | 12.08301 | 28789 ft | 425 kts | 171° |
| 2026-05-06 18:13 | 46.08345 | 12.09513 | 27632 ft | 428 kts | 170° |
| 2026-05-06 18:13 | 46.05476 | 12.10737 | 26436 ft | 433 kts | 170° |
| 2026-05-06 18:13 | 46.02574 | 12.11977 | 25508 ft | 436 kts | 169° |
| 2026-05-06 18:14 | 45.99660 | 12.13221 | 25147 ft | 437 kts | 169° |
| 2026-05-06 18:14 | 45.96744 | 12.14464 | 24956 ft | 437 kts | 169° |
| 2026-05-06 18:14 | 45.93823 | 12.15709 | 24897 ft | 437 kts | 169° |
| 2026-05-06 18:14 | 45.90902 | 12.16949 | 24919 ft | 438 kts | 169° |
| 2026-05-06 18:15 | 45.87980 | 12.18183 | 24920 ft | 438 kts | 169° |
| 2026-05-06 18:15 | 45.85053 | 12.19416 | 24916 ft | 438 kts | 169° |
| 2026-05-06 18:15 | 45.82141 | 12.20647 | 24526 ft | 433 kts | 169° |
| 2026-05-06 18:15 | 45.79270 | 12.21861 | 23721 ft | 429 kts | 168° |
| 2026-05-06 18:16 | 45.76521 | 12.23023 | 22864 ft | 427 kts | 168° |
| 2026-05-06 18:16 | 45.74101 | 12.24043 | 22159 ft | 424 kts | 168° |
| 2026-05-06 18:16 | 45.71285 | 12.25226 | 21390 ft | 421 kts | 168° |
| 2026-05-06 18:16 | 45.68485 | 12.26404 | 20658 ft | 417 kts | 168° |
| 2026-05-06 18:17 | 45.65671 | 12.27049 | 19975 ft | 405 kts | 184° |
| 2026-05-06 18:17 | 45.62975 | 12.26432 | 19318 ft | 395 kts | 201° |
| 2026-05-06 18:17 | 45.60421 | 12.25020 | 18631 ft | 392 kts | 204° |
| 2026-05-06 18:17 | 45.57903 | 12.23545 | 17950 ft | 390 kts | 204° |
| 2026-05-06 18:18 | 45.55403 | 12.22073 | 17262 ft | 388 kts | 204° |
| 2026-05-06 18:18 | 45.52921 | 12.20603 | 16628 ft | 384 kts | 204° |
| 2026-05-06 18:18 | 45.50466 | 12.19141 | 16029 ft | 381 kts | 204° |
| 2026-05-06 18:18 | 45.48045 | 12.17673 | 15451 ft | 377 kts | 207° |
| 2026-05-06 18:19 | 45.45915 | 12.15574 | 14914 ft | 371 kts | 225° |
| 2026-05-06 18:19 | 45.44333 | 12.12697 | 14344 ft | 369 kts | 234° |
| 2026-05-06 18:19 | 45.42881 | 12.09701 | 13760 ft | 367 kts | 234° |
| 2026-05-06 18:19 | 45.41449 | 12.06710 | 13112 ft | 364 kts | 234° |
| 2026-05-06 18:20 | 45.40025 | 12.03738 | 12467 ft | 362 kts | 234° |
| 2026-05-06 18:20 | 45.38614 | 12.00797 | 11825 ft | 359 kts | 234° |
| 2026-05-06 18:20 | 45.37208 | 11.97880 | 11177 ft | 356 kts | 234° |
| 2026-05-06 18:20 | 45.35808 | 11.94988 | 10536 ft | 353 kts | 234° |
| 2026-05-06 18:21 | 45.34429 | 11.92153 | 10265 ft | 341 kts | 234° |
| 2026-05-06 18:21 | 45.33115 | 11.89457 | 10133 ft | 319 kts | 234° |
| 2026-05-06 18:21 | 45.31908 | 11.86979 | 10009 ft | 292 kts | 234° |
| 2026-05-06 18:21 | 45.30810 | 11.84724 | 9802 ft | 274 kts | 234° |
| 2026-05-06 18:22 | 45.29739 | 11.82528 | 9481 ft | 268 kts | 234° |
| 2026-05-06 18:22 | 45.28678 | 11.80359 | 9107 ft | 266 kts | 234° |
| 2026-05-06 18:22 | 45.27623 | 11.78211 | 8711 ft | 265 kts | 234° |
| 2026-05-06 18:22 | 45.26378 | 11.76311 | 8318 ft | 263 kts | 213° |
| 2026-05-06 18:23 | 45.24664 | 11.75445 | 7908 ft | 265 kts | 186° |
| 2026-05-06 18:23 | 45.22843 | 11.75857 | 7491 ft | 271 kts | 159° |
| 2026-05-06 18:23 | 45.21339 | 11.77472 | 7069 ft | 278 kts | 131° |
| 2026-05-06 18:23 | 45.20508 | 11.79958 | 6656 ft | 283 kts | 102° |
| 2026-05-06 18:24 | 45.20552 | 11.82742 | 6254 ft | 285 kts | 78° |
| 2026-05-06 18:24 | 45.21051 | 11.85464 | 5827 ft | 285 kts | 75° |
| 2026-05-06 18:24 | 45.21603 | 11.88148 | 5445 ft | 282 kts | 74° |
| 2026-05-06 18:24 | 45.22161 | 11.90802 | 5073 ft | 279 kts | 74° |
| 2026-05-06 18:25 | 45.22717 | 11.93432 | 4702 ft | 277 kts | 74° |
| 2026-05-06 18:25 | 45.23264 | 11.95999 | 4307 ft | 274 kts | 75° |
| 2026-05-06 18:25 | 45.23819 | 11.98581 | 3906 ft | 273 kts | 74° |
| 2026-05-06 18:25 | 45.24424 | 12.01127 | 3496 ft | 272 kts | 65° |
| 2026-05-06 18:26 | 45.25530 | 12.03282 | 3110 ft | 271 kts | 43° |
| 2026-05-06 18:26 | 45.26927 | 12.05059 | 3008 ft | 271 kts | 42° |
| 2026-05-06 18:26 | 45.28343 | 12.06850 | 3018 ft | 273 kts | 42° |
| 2026-05-06 18:26 | 45.29761 | 12.08652 | 3019 ft | 274 kts | 42° |
| 2026-05-06 18:27 | 45.31180 | 12.10458 | 3018 ft | 274 kts | 43° |
| 2026-05-06 18:27 | 45.32578 | 12.12239 | 3003 ft | 260 kts | 42° |
| 2026-05-06 18:27 | 45.33829 | 12.13831 | 3009 ft | 240 kts | 43° |
| 2026-05-06 18:27 | 45.35031 | 12.15364 | 3017 ft | 220 kts | 43° |
| 2026-05-06 18:28 | 45.36106 | 12.16735 | 3022 ft | 195 kts | 43° |
| 2026-05-06 18:28 | 45.37072 | 12.17968 | 3002 ft | 181 kts | 43° |
| 2026-05-06 18:28 | 45.37986 | 12.19135 | 2933 ft | 172 kts | 43° |
| 2026-05-06 18:28 | 45.38857 | 12.20248 | 2766 ft | 165 kts | 43° |
| 2026-05-06 18:29 | 45.39698 | 12.21322 | 2570 ft | 161 kts | 43° |
| 2026-05-06 18:29 | 45.40521 | 12.22375 | 2375 ft | 158 kts | 43° |
| 2026-05-06 18:29 | 45.41333 | 12.23414 | 2158 ft | 157 kts | 43° |
| 2026-05-06 18:29 | 45.42142 | 12.24448 | 1949 ft | 155 kts | 43° |
| 2026-05-06 18:30 | 45.42938 | 12.25467 | 1740 ft | 153 kts | 44° |
| 2026-05-06 18:30 | 45.43721 | 12.26470 | 1538 ft | 153 kts | 43° |
| 2026-05-06 18:30 | 45.44508 | 12.27479 | 1334 ft | 152 kts | 44° |
| 2026-05-06 18:30 | 45.45290 | 12.28481 | 1139 ft | 151 kts | 44° |
| 2026-05-06 18:31 | 45.46067 | 12.29477 | 923 ft | 149 kts | 44° |
| 2026-05-06 18:31 | 45.46837 | 12.30465 | 726 ft | 150 kts | 43° |
| 2026-05-06 18:31 | 45.47610 | 12.31448 | 540 ft | 148 kts | 42° |
| 2026-05-06 18:31 | 45.48367 | 12.32427 | 337 ft | 146 kts | 43° |
| 2026-05-06 18:32 | 45.49118 | 12.33395 | 125 ft | 146 kts | 43° |
| 2026-05-06 18:32 | 45.49857 | 12.34320 | 29 ft | 131 kts | 45° |
| 2026-05-06 18:32 | 45.50421 | 12.35072 | 14 ft | 91 kts | 43° |
| 2026-05-06 18:32 | 45.50692 | 12.35373 | 16 ft | 30 kts | 13° |
| 2026-05-06 18:33 | 45.50811 | 12.35424 | 15 ft | 10 kts | 15° |
| 2026-05-06 18:33 | 45.50814 | 12.35425 | 16 ft | 0 kts | 15° |
| 2026-05-06 18:34 | 45.50836 | 12.35434 | 16 ft | 11 kts | 15° |
| 2026-05-06 18:34 | 45.50943 | 12.35455 | 17 ft | 16 kts | 343° |
| 2026-05-06 18:35 | 45.50977 | 12.35339 | 20 ft | 13 kts | 260° |
| 2026-05-06 18:35 | 45.50949 | 12.35204 | 18 ft | 15 kts | 242° |
| 2026-05-06 18:35 | 45.50871 | 12.35094 | 16 ft | 17 kts | 222° |
| 2026-05-06 18:35 | 45.50778 | 12.34977 | 16 ft | 19 kts | 221° |
| 2026-05-06 18:36 | 45.50676 | 12.34846 | 16 ft | 21 kts | 222° |
| 2026-05-06 18:36 | 45.50605 | 12.34669 | 16 ft | 22 kts | 264° |
| 2026-05-06 18:36 | 45.50598 | 12.34495 | 16 ft | 15 kts | 267° |
| 2026-05-06 18:36 | 45.50617 | 12.34372 | 16 ft | 0 kts | 307° |
| 2026-05-06 18:37 | 45.50617 | 12.34371 | 16 ft | 1 kts | 302° |
| 2026-05-06 18:37 | 45.50620 | 12.34346 | 17 ft | 7 kts | 273° |
| 2026-05-06 18:37 | 45.50616 | 12.34215 | 16 ft | 0 kts | 267° |